Time;durP1;ratioP1;P1;durP2;ratioP2;P2;SDS_P1;SDS_P2;PMS_P1;PMS_P2;Temp;Humidity;BMP_temperature;BMP_pressure;BME280_temperature;BME280_humidity;BME280_pressure;Samples;Min_cycle;Max_cycle;Signal;HPM_P1;HPM_P2
2024/01/30 00:02:17;;;;;;;9.95;6.47;;;;;;;8.94;100.00;102483.69;5067267;28;20033;-96
2024/01/30 00:04:45;;;;;;;8.73;6.38;;;;;;;9.11;100.00;102516.94;5071903;28;20052;-96
2024/01/30 00:07:21;;;;;;;12.10;6.97;;;;;;;9.09;100.00;102526.53;5077601;28;20013;-92
2024/01/30 00:09:50;;;;;;;10.15;7.00;;;;;;;8.81;100.00;102484.88;5140498;22;20106;-91
2024/01/30 00:12:16;;;;;;;10.80;6.68;;;;;;;8.92;100.00;102498.53;5047485;28;20087;-96
2024/01/30 00:14:49;;;;;;;11.48;6.70;;;;;;;9.04;100.00;102522.81;5051737;28;20036;-97
2024/01/30 00:17:17;;;;;;;9.82;6.68;;;;;;;8.93;100.00;102511.78;5050487;28;20041;-96
2024/01/30 00:19:42;;;;;;;10.57;6.85;;;;;;;8.86;100.00;102509.69;5047920;28;20056;-96
2024/01/30 00:22:11;;;;;;;11.85;6.75;;;;;;;8.77;100.00;102498.75;5042358;28;20029;-95
2024/01/30 00:24:37;;;;;;;12.75;6.50;;;;;;;8.77;100.00;102497.00;5048560;28;20051;-96
2024/01/30 00:27:03;;;;;;;12.20;6.88;;;;;;;8.67;100.00;102481.63;5045458;28;20048;-96
2024/01/30 00:29:33;;;;;;;10.15;6.90;;;;;;;8.89;100.00;102516.84;5052640;28;20063;-94
2024/01/30 00:32:02;;;;;;;10.85;7.00;;;;;;;8.64;100.00;102481.47;5054504;28;20047;-95
2024/01/30 00:34:34;;;;;;;11.65;7.28;;;;;;;8.63;100.00;102484.06;5051898;22;20100;-94
2024/01/30 00:37:03;;;;;;;10.38;6.57;;;;;;;8.64;100.00;102489.38;5039887;22;20514;-96
2024/01/30 00:39:28;;;;;;;11.90;7.05;;;;;;;8.80;100.00;102512.06;5004701;28;20037;-96
2024/01/30 00:41:59;;;;;;;9.27;6.85;;;;;;;8.62;100.00;102485.78;5033558;28;20013;-96
2024/01/30 00:47:34;;;;;;;8.98;6.57;;;;;;;8.66;100.00;102477.19;5015407;28;20031;-95
2024/01/30 00:50:05;;;;;;;9.43;5.68;;;;;;;8.81;100.00;102520.88;5017836;28;20041;-96
2024/01/30 00:55:32;;;;;;;14.40;7.10;;;;;;;8.60;100.00;102482.19;5056234;28;20045;-95
2024/01/30 00:58:05;;;;;;;10.95;6.70;;;;;;;8.36;100.00;102462.63;5055382;28;20413;-94
2024/01/30 01:00:42;;;;;;;13.80;6.30;;;;;;;8.51;100.00;102485.28;5056430;28;20066;-95
2024/01/30 01:03:08;;;;;;;10.55;6.25;;;;;;;8.44;100.00;102477.97;5037214;28;20028;-96
2024/01/30 01:05:37;;;;;;;11.27;6.55;;;;;;;8.58;100.00;102497.03;5079391;22;20061;-96
2024/01/30 01:08:09;;;;;;;8.93;6.30;;;;;;;8.39;100.00;102468.03;5038862;28;20021;-91
2024/01/30 01:13:20;;;;;;;11.65;6.85;;;;;;;8.54;100.00;102495.09;5090603;22;20046;-91
2024/01/30 01:15:55;;;;;;;10.90;6.75;;;;;;;8.26;100.00;102454.28;5041336;28;20014;-92
2024/01/30 01:18:30;;;;;;;10.00;6.85;;;;;;;8.52;100.00;102502.00;5058733;23;20048;-95
2024/01/30 01:21:00;;;;;;;10.57;6.32;;;;;;;8.45;100.00;102497.31;5055373;28;20066;-96
2024/01/30 01:23:33;;;;;;;9.55;6.50;;;;;;;8.28;100.00;102476.31;5082485;22;20041;-94
2024/01/30 01:25:59;;;;;;;10.38;6.72;;;;;;;8.18;100.00;102455.66;5141027;22;20057;-96
2024/01/30 01:28:27;;;;;;;11.07;6.55;;;;;;;8.24;100.00;102469.09;5071080;28;20056;-96
2024/01/30 01:30:59;;;;;;;9.68;6.68;;;;;;;8.33;100.00;102481.81;5071282;28;20033;-96
2024/01/30 01:33:33;;;;;;;10.15;6.72;;;;;;;8.26;100.00;102475.38;5053003;28;20017;-96
2024/01/30 01:36:02;;;;;;;12.50;6.47;;;;;;;8.19;100.00;102452.19;5070385;28;20325;-96
2024/01/30 01:38:27;;;;;;;11.20;6.65;;;;;;;8.32;100.00;102479.09;5071555;28;20059;-96
2024/01/30 01:41:03;;;;;;;12.07;7.03;;;;;;;8.15;100.00;102447.63;5111586;22;20057;-91
2024/01/30 01:43:29;;;;;;;11.90;6.60;;;;;;;8.09;100.00;102443.78;5149229;22;20042;-90
2024/01/30 01:46:01;;;;;;;8.85;6.50;;;;;;;8.05;100.00;102437.50;5147168;22;20049;-91
2024/01/30 01:48:29;;;;;;;10.60;7.03;;;;;;;8.15;100.00;102449.34;5076262;28;20059;-96
2024/01/30 01:51:02;;;;;;;10.32;6.65;;;;;;;8.15;100.00;102449.34;5075331;28;20035;-96
2024/01/30 01:53:33;;;;;;;9.20;6.50;;;;;;;8.15;100.00;102450.25;5074922;28;20033;-96
2024/01/30 01:56:11;;;;;;;9.13;6.90;;;;;;;8.27;100.00;102473.63;5073386;28;20032;-95
2024/01/30 01:58:47;;;;;;;10.52;6.90;;;;;;;8.27;100.00;102477.16;5058227;28;20013;-96
2024/01/30 02:01:40;;;;;;;12.77;7.18;;;;;;;8.05;100.00;102434.88;5077702;28;20135;-96
2024/01/30 02:04:10;;;;;;;;;;;;;;;8.36;100.00;102478.41;5078572;28;20051;-96
2024/01/30 02:06:40;;;;;;;9.88;6.30;;;;;;;8.17;100.00;102440.69;5077615;28;19908;-94
2024/01/30 02:09:13;;;;;;;10.00;6.97;;;;;;;8.32;100.00;102463.31;5060062;28;20019;-96
2024/01/30 02:11:42;;;;;;;11.70;6.88;;;;;;;8.21;100.00;102445.25;5077508;28;20029;-95
2024/01/30 02:14:12;;;;;;;10.60;6.68;;;;;;;8.15;100.00;102433.56;5078202;28;20033;-95
2024/01/30 02:16:42;;;;;;;10.15;6.32;;;;;;;8.35;100.00;102471.31;5060975;28;20059;-96
2024/01/30 02:19:25;;;;;;;9.75;6.55;;;;;;;8.15;100.00;102431.81;5076649;28;20196;-95
2024/01/30 02:22:01;;;;;;;9.32;6.40;;;;;;;8.31;100.00;102470.31;5058957;28;20044;-96
2024/01/30 02:24:29;;;;;;;11.52;6.93;;;;;;;8.10;100.00;102425.44;5076732;28;20001;-95
2024/01/30 02:27:26;;;;;;;9.25;6.65;;;;;;;8.27;100.00;102461.34;5077108;28;20082;-96
2024/01/30 02:29:57;;;;;;;12.35;6.60;;;;;;;8.04;100.00;102420.78;5060815;28;20036;-94
2024/01/30 02:32:35;;;;;;;9.20;6.25;;;;;;;8.11;100.00;102418.44;5061864;28;20115;-94
2024/01/30 02:35:29;;;;;;;10.25;6.38;;;;;;;8.11;100.00;102429.88;5073980;22;20060;-96
2024/01/30 02:38:10;;;;;;;9.23;6.40;;;;;;;8.15;100.00;102437.09;5051111;22;20061;-96
2024/01/30 02:40:51;;;;;;;9.50;6.70;;;;;;;8.18;100.00;102442.50;5072493;22;20048;-94
2024/01/30 02:43:17;;;;;;;11.67;7.17;;;;;;;8.26;100.00;102464.84;5250259;22;20048;-94
2024/01/30 02:45:52;;;;;;;12.75;6.50;;;;;;;8.20;100.00;102451.38;5055613;28;20113;-95
2024/01/30 02:48:18;;;;;;;12.98;6.88;;;;;;;8.24;100.00;102461.22;5022742;28;20034;-96
2024/01/30 02:50:44;;;;;;;13.82;7.43;;;;;;;8.23;100.00;102461.16;5035805;28;20103;-95
2024/01/30 02:53:19;;;;;;;12.43;6.72;;;;;;;8.23;100.00;102446.25;5055274;28;20041;-95
2024/01/30 02:55:49;;;;;;;11.27;6.47;;;;;;;8.07;100.00;102414.78;5045842;28;20075;-93
2024/01/30 03:00:47;;;;;;;11.32;6.60;;;;;;;8.08;100.00;102419.19;5087064;22;20029;-93
2024/01/30 03:03:21;;;;;;;9.68;6.40;;;;;;;8.00;100.00;102410.03;5055843;28;20066;-94
2024/01/30 03:05:52;;;;;;;9.45;6.82;;;;;;;8.18;100.00;102438.94;5057994;28;20033;-95
2024/01/30 03:08:17;;;;;;;10.52;6.35;;;;;;;8.23;100.00;102448.88;5057903;28;20037;-96
2024/01/30 03:10:55;;;;;;;10.52;6.32;;;;;;;8.09;100.00;102417.47;5055102;28;20041;-96
2024/01/30 03:13:29;;;;;;;12.50;6.90;;;;;;;8.11;100.00;102423.72;5055421;28;20017;-96
2024/01/30 03:15:54;;;;;;;9.43;6.35;;;;;;;8.04;100.00;102398.81;5058450;28;20073;-93
2024/01/30 03:18:36;;;;;;;10.52;6.20;;;;;;;8.07;100.00;102404.25;5082928;22;20045;-90
2024/01/30 03:24:01;;;;;;;10.63;6.47;;;;;;;8.02;100.00;102390.88;5059064;28;20028;-94
2024/01/30 03:26:29;;;;;;;11.95;6.75;;;;;;;7.94;100.00;102376.44;5102818;22;20078;-93
2024/01/30 03:31:40;;;;;;;13.07;6.68;;;;;;;8.04;100.00;102405.00;5073597;22;20061;-96
2024/01/30 03:34:13;;;;;;;13.25;6.07;;;;;;;8.02;100.00;102403.13;5036948;28;20100;-95
2024/01/30 03:36:44;;;;;;;10.13;6.97;;;;;;;8.07;100.00;102424.41;5101785;22;20125;-95
2024/01/30 03:39:16;;;;;;;11.90;6.88;;;;;;;8.08;100.00;102424.47;5107339;22;20108;-93
2024/01/30 03:41:50;;;;;;;11.07;6.88;;;;;;;7.95;100.00;102403.66;5060563;28;20021;-94
2024/01/30 03:44:36;;;;;;;12.10;5.72;;;;;;;7.92;100.00;102393.91;5078208;28;20232;-94
2024/01/30 03:47:25;;;;;;;14.57;7.05;;;;;;;7.81;100.00;102392.50;5078172;28;20029;-93
2024/01/30 03:49:53;;;;;;;9.32;6.10;;;;;;;7.82;100.00;102375.88;5077281;28;20088;-96
2024/01/30 03:52:21;;;;;;;12.25;7.18;;;;;;;8.03;100.00;102421.63;5059614;28;20021;-94
2024/01/30 03:54:51;;;;;;;10.57;6.53;;;;;;;7.92;100.00;102399.19;5059701;28;20067;-96
2024/01/30 03:57:24;;;;;;;11.90;6.80;;;;;;;7.79;100.00;102381.00;5077184;28;20025;-96
2024/01/30 03:59:59;;;;;;;11.55;7.18;;;;;;;7.89;100.00;102391.13;5059297;28;20203;-94
2024/01/30 04:02:36;;;;;;;8.90;5.88;;;;;;;7.99;100.00;102403.88;5059613;28;20009;-95
2024/01/30 04:05:09;;;;;;;8.40;6.03;;;;;;;8.17;100.00;102429.25;5083094;28;20036;-95
2024/01/30 04:07:51;;;;;;;10.13;6.25;;;;;;;8.14;100.00;102431.75;5097264;28;20060;-96
2024/01/30 04:10:25;;;;;;;12.30;6.30;;;;;;;7.89;100.00;102392.88;5081751;28;20024;-95
2024/01/30 04:13:05;;;;;;;8.93;6.30;;;;;;;7.89;100.00;102391.13;5097274;28;20047;-95
2024/01/30 04:18:06;;;;;;;11.90;6.05;;;;;;;7.96;100.00;102389.66;5249501;22;20078;-92
2024/01/30 04:20:34;;;;;;;9.00;6.00;;;;;;;8.00;100.00;102383.72;5554793;22;20083;-95
2024/01/30 04:26:09;;;;;;;;;;;;;;;;;;;;;
2024/01/30 04:28:44;;;;;;;10.60;5.80;;;;;;;8.37;100.00;102420.56;5024011;28;20033;-90
2024/01/30 04:31:17;;;;;;;9.70;6.03;;;;;;;8.36;100.00;102405.56;5039539;28;20013;-89
2024/01/30 04:33:46;;;;;;;9.40;5.90;;;;;;;8.21;100.00;102375.91;5362805;22;20028;-93
2024/01/30 04:36:16;;;;;;;9.95;5.55;;;;;;;8.39;100.00;102394.28;5081214;22;20061;-94
2024/01/30 04:38:47;;;;;;;10.80;5.60;;;;;;;8.31;100.00;102364.97;5055432;28;20044;-96
2024/01/30 04:41:17;;;;;;;11.27;5.80;;;;;;;8.39;100.00;102365.31;5037710;28;20105;-95
2024/01/30 04:43:55;;;;;;;10.57;5.70;;;;;;;8.42;100.00;102361.09;5038468;28;20125;-95
2024/01/30 04:46:23;;;;;;;9.15;5.70;;;;;;;8.56;100.00;102373.94;5056579;28;20013;-94
2024/01/30 04:48:51;;;;;;;11.98;6.20;;;;;;;8.71;100.00;102390.44;5039901;28;20030;-93
2024/01/30 04:53:58;;;;;;;10.85;5.85;;;;;;;8.50;100.00;102340.34;4985036;22;20044;-93
2024/01/30 04:56:35;;;;;;;9.18;5.80;;;;;;;8.59;100.00;102346.00;5280117;22;20046;-89
2024/01/30 04:59:14;;;;;;;;;;;;;;;;;;;;;
2024/01/30 05:06:59;;;;;;;8.38;5.53;;;;;;;8.62;100.00;102345.25;5301464;22;20053;-95
2024/01/30 05:09:28;;;;;;;11.27;5.88;;;;;;;8.89;100.00;102401.75;5035436;28;20056;-96
2024/01/30 05:12:04;;;;;;;8.93;5.95;;;;;;;8.68;100.00;102354.31;5031263;28;20033;-95
2024/01/30 05:14:46;;;;;;;8.40;5.40;;;;;;;8.73;100.00;102368.56;5535740;22;20032;31
2024/01/30 05:17:23;;;;;;;10.60;5.70;;;;;;;8.92;100.00;102395.72;5461177;22;20041;-92
2024/01/30 05:25:20;;;;;;;12.05;5.45;;;;;;;8.73;100.00;102359.75;5111156;22;20063;-96
2024/01/30 05:27:55;;;;;;;7.32;5.07;;;;;;;8.95;100.00;102404.66;5122845;22;20065;-92
2024/01/30 05:32:51;;;;;;;9.55;5.28;;;;;;;8.90;100.00;102393.00;5281557;22;20308;-96
2024/01/30 05:35:16;;;;;;;9.75;5.35;;;;;;;8.72;100.00;102342.16;5526804;22;20057;-96
2024/01/30 05:40:40;;;;;;;8.45;5.35;;;;;;;9.00;100.00;102394.31;5246047;22;20024;31
2024/01/30 05:43:11;;;;;;;10.57;5.43;;;;;;;8.75;100.00;102350.19;5167562;22;20049;-95
2024/01/30 05:50:56;;;;;;;9.07;5.63;;;;;;;9.02;100.00;102403.19;5142570;22;20074;-93
2024/01/30 05:56:01;;;;;;;8.45;5.40;;;;;;;8.82;100.00;102362.78;5163455;22;20041;-93
2024/01/30 05:58:37;;;;;;;9.95;5.95;;;;;;;8.77;100.00;102352.03;5091701;23;20053;-92
2024/01/30 06:01:08;;;;;;;9.25;5.60;;;;;;;8.84;100.00;102357.59;5272894;22;20037;-94
2024/01/30 06:03:44;;;;;;;8.55;5.72;;;;;;;8.81;100.00;102344.28;5281427;22;21423;-95
2024/01/30 06:06:15;;;;;;;7.78;5.13;;;;;;;8.84;100.00;102339.16;5000344;28;20042;-93
2024/01/30 06:08:46;;;;;;;8.55;5.53;;;;;;;9.12;100.00;102386.91;5080816;23;20062;-95
2024/01/30 06:11:16;;;;;;;10.23;5.22;;;;;;;8.99;100.00;102374.03;5118495;22;20061;-93
2024/01/30 06:13:47;;;;;;;9.73;5.88;;;;;;;9.04;100.00;102375.16;5134513;22;20033;-95
2024/01/30 06:16:30;;;;;;;;;;;;;;;;;;;;;
2024/01/30 06:19:02;;;;;;;8.85;5.18;;;;;;;8.94;100.00;102352.75;5063625;28;20052;-93
2024/01/30 06:21:28;;;;;;;9.15;5.65;;;;;;;9.00;100.00;102360.94;5079020;28;20025;-94
2024/01/30 06:23:56;;;;;;;13.35;5.32;;;;;;;9.26;100.00;102405.94;5078213;28;20071;-94
2024/01/30 06:26:30;;;;;;;8.18;5.30;;;;;;;9.08;100.00;102371.81;5076263;28;20017;-94
2024/01/30 06:29:26;;;;;;;;;;;;;;;;;;;;;
2024/01/30 06:32:10;;;;;;;7.50;5.35;;;;;;;9.04;100.00;102361.97;5005700;23;20042;-88
2024/01/30 06:34:58;;;;;;;10.50;5.63;;;;;;;9.09;100.00;102367.44;5071838;23;20032;-92
2024/01/30 06:37:35;;;;;;;8.65;6.00;;;;;;;9.36;100.00;102420.41;5306452;23;20940;-95
2024/01/30 06:40:08;;;;;;;11.07;5.97;;;;;;;9.17;100.00;102376.56;5063093;23;20070;-95
2024/01/30 06:42:34;;;;;;;9.48;5.05;;;;;;;9.21;100.00;102386.41;4964889;28;20147;-93
2024/01/30 06:45:25;;;;;;;9.35;5.55;;;;;;;9.38;100.00;102417.00;5409503;23;20036;31
2024/01/30 06:48:23;;;;;;;9.05;5.60;;;;;;;9.39;100.00;102428.44;5383327;23;20068;31
2024/01/30 06:50:50;;;;;;;8.73;5.65;;;;;;;9.19;100.00;102380.16;4921900;29;20107;-90
2024/01/30 06:55:56;;;;;;;9.55;5.88;;;;;;;9.42;100.00;102421.56;5255439;23;20043;31
2024/01/30 06:59:03;;;;;;;10.48;5.95;;;;;;;9.01;100.00;102356.56;5064265;23;20058;31
2024/01/30 07:01:42;;;;;;;9.73;5.25;;;;;;;9.05;100.00;102358.50;5161460;23;20069;-92
2024/01/30 07:04:15;;;;;;;10.38;5.60;;;;;;;9.46;100.00;102447.25;5089479;23;20943;-91
2024/01/30 07:09:49;;;;;;;9.27;5.47;;;;;;;9.24;100.00;102416.41;4784902;23;20081;31
2024/01/30 07:12:47;;;;;;;10.98;5.30;;;;;;;9.28;100.00;102414.81;5294369;23;20176;-89
2024/01/30 07:15:19;;;;;;;11.13;5.57;;;;;;;9.28;100.00;102414.81;5077947;23;20062;-93
2024/01/30 07:21:00;;;;;;;;;;;;;;;;;;;;;
2024/01/30 07:23:51;;;;;;;;;;;;;;;9.57;100.00;102457.31;5243426;23;20056;31
2024/01/30 07:29:23;;;;;;;10.13;5.23;;;;;;;9.55;100.00;102467.81;5683233;23;20051;31
2024/01/30 07:35:00;;;;;;;8.30;5.50;;;;;;;9.28;100.00;102422.72;5271522;23;19906;-93
2024/01/30 07:37:36;;;;;;;10.48;5.82;;;;;;;9.49;100.00;102460.53;5067015;23;20059;-93
2024/01/30 07:40:07;;;;;;;8.40;5.47;;;;;;;9.31;100.00;102429.88;4963844;28;20023;-91
2024/01/30 07:53:01;;;;;;;9.05;5.72;;;;;;;9.36;100.00;102447.69;5664455;23;20063;-89
2024/01/30 07:58:12;;;;;;;11.88;6.70;;;;;;;9.32;100.00;102443.13;5290704;23;20039;-90
2024/01/30 08:05:55;;;;;;;9.45;6.07;;;;;;;9.39;100.00;102458.38;5368882;23;20049;-90
2024/01/30 08:11:31;;;;;;;;;;;;;;;;;;;;;
2024/01/30 08:14:04;;;;;;;9.50;6.10;;;;;;;9.57;100.00;102481.97;4939773;28;20102;-94
2024/01/30 08:16:29;;;;;;;10.68;6.43;;;;;;;9.58;100.00;102475.84;4920521;29;20044;-95
2024/01/30 08:19:01;;;;;;;9.88;5.97;;;;;;;9.74;100.00;102502.03;4945694;29;20138;-96
2024/01/30 08:21:36;;;;;;;12.18;6.65;;;;;;;9.49;100.00;102460.53;4947926;29;20039;-93
2024/01/30 08:24:10;;;;;;;9.45;6.10;;;;;;;9.53;100.00;102458.94;4919979;29;20035;-96
2024/01/30 08:26:49;;;;;;;9.90;5.95;;;;;;;9.58;100.00;102469.66;4923408;28;20024;-95
2024/01/30 08:29:14;;;;;;;11.05;6.22;;;;;;;9.81;100.00;102502.25;5254532;23;21110;-96
2024/01/30 08:31:40;;;;;;;11.63;5.97;;;;;;;9.81;100.00;102500.56;4996397;23;20067;-95
2024/01/30 08:36:33;;;;;;;8.40;6.10;;;;;;;9.91;100.00;102493.91;4979977;28;20054;-92
2024/01/30 08:38:58;;;;;;;10.35;5.95;;;;;;;9.91;100.00;102491.25;4968155;28;20034;-96
2024/01/30 08:41:24;;;;;;;11.63;6.18;;;;;;;9.96;100.00;102498.50;4961571;28;20047;-94
2024/01/30 08:43:49;;;;;;;9.88;5.82;;;;;;;10.00;100.00;102505.72;4976109;28;20037;-90
2024/01/30 08:46:18;;;;;;;10.68;5.88;;;;;;;9.95;100.00;102490.53;4974470;28;20395;-90
2024/01/30 08:48:43;;;;;;;12.30;6.18;;;;;;;9.99;100.00;102492.47;4974521;28;20113;-90
2024/01/30 08:51:09;;;;;;;10.25;6.18;;;;;;;9.96;100.00;102479.13;4974229;28;20031;-90
2024/01/30 08:53:35;;;;;;;11.55;6.30;;;;;;;10.09;100.00;102499.91;4974382;28;20074;-90
2024/01/30 08:56:02;;;;;;;12.40;5.82;;;;;;;10.10;100.00;102501.69;4974574;28;20031;-90
2024/01/30 08:58:27;;;;;;;10.63;6.30;;;;;;;10.16;100.00;102501.94;4941432;28;20503;-90
2024/01/30 09:00:53;;;;;;;13.98;6.38;;;;;;;10.02;100.00;102479.34;4974522;28;20065;-90
2024/01/30 09:03:19;;;;;;;9.63;5.90;;;;;;;10.14;100.00;102489.50;4974379;28;20039;-93
2024/01/30 09:05:44;;;;;;;11.57;6.10;;;;;;;10.07;100.00;102466.38;4941637;28;20118;-91
2024/01/30 09:08:10;;;;;;;8.93;6.03;;;;;;;10.24;100.00;102496.97;4974945;28;20109;-93
2024/01/30 09:10:35;;;;;;;10.77;5.82;;;;;;;10.34;100.00;102512.34;4974646;28;20038;-92
2024/01/30 09:13:04;;;;;;;10.38;6.18;;;;;;;10.38;100.00;102513.38;4971192;28;20035;-96
2024/01/30 09:15:29;;;;;;;12.45;6.13;;;;;;;10.40;100.00;102509.94;4944257;29;20035;-96
2024/01/30 09:17:54;;;;;;;11.48;6.22;;;;;;;10.42;100.00;102510.00;4944333;29;20047;-90
2024/01/30 09:20:22;;;;;;;9.13;6.15;;;;;;;10.47;100.00;102521.66;4941717;29;20046;-94
2024/01/30 09:22:47;;;;;;;11.48;6.15;;;;;;;10.45;100.00;102507.50;4960308;29;20075;-92
2024/01/30 09:25:13;;;;;;;9.82;5.80;;;;;;;10.54;100.00;102518.41;4941118;29;20031;-90
2024/01/30 09:27:40;;;;;;;13.07;6.43;;;;;;;10.52;100.00;102513.03;4938291;29;20097;-88
2024/01/30 09:30:07;;;;;;;11.18;6.05;;;;;;;10.57;100.00;102521.13;4959049;28;20035;-87
2024/01/30 09:32:32;;;;;;;9.82;6.25;;;;;;;10.59;100.00;102523.88;4963622;28;20023;-91
2024/01/30 09:34:58;;;;;;;11.75;6.05;;;;;;;10.66;100.00;102524.16;4937244;29;20055;-88
2024/01/30 09:37:23;;;;;;;13.13;6.43;;;;;;;10.63;100.00;102520.50;4962414;29;20098;-89
2024/01/30 09:39:48;;;;;;;10.65;6.15;;;;;;;10.69;100.00;102518.06;4948948;29;20031;-90
2024/01/30 09:42:26;;;;;;;15.05;6.18;;;;;;;10.77;100.00;102530.72;4961529;29;20035;-91
2024/01/30 09:44:53;;;;;;;11.10;5.82;;;;;;;10.73;100.00;102515.59;4939014;29;20027;-90
2024/01/30 09:47:19;;;;;;;14.43;5.97;;;;;;;10.83;100.00;102526.50;4954920;29;20114;-91
2024/01/30 09:49:45;;;;;;;10.68;6.25;;;;;;;10.87;100.00;102536.34;4954871;29;20115;-91
2024/01/30 09:52:11;;;;;;;10.05;6.22;;;;;;;10.98;100.00;102542.94;4937661;29;20372;-89
2024/01/30 09:54:38;;;;;;;14.40;6.45;;;;;;;11.04;100.00;102543.16;4938261;29;20035;-92
2024/01/30 09:57:04;;;;;;;12.65;6.50;;;;;;;11.09;100.00;102536.31;4958012;28;20036;-94
2024/01/30 09:59:30;;;;;;;13.60;6.60;;;;;;;11.09;100.00;102536.31;4941373;29;20567;-93
2024/01/30 10:01:56;;;;;;;14.93;6.72;;;;;;;11.09;100.00;102538.94;4941548;29;20035;-95
2024/01/30 10:04:22;;;;;;;10.68;6.50;;;;;;;11.15;100.00;102546.19;4961265;29;20038;-95
2024/01/30 10:06:47;;;;;;;11.45;6.25;;;;;;;11.14;100.00;102526.78;4927176;29;20047;-96
2024/01/30 10:09:13;;;;;;;12.18;6.35;;;;;;;11.17;100.00;102545.38;4959345;29;20036;-91
2024/01/30 10:11:39;;;;;;;13.98;6.45;;;;;;;11.09;100.00;102514.22;4941538;29;20388;-91
2024/01/30 10:14:04;;;;;;;13.05;6.15;;;;;;;11.25;100.00;102537.72;4925118;29;20086;-93
2024/01/30 10:16:30;;;;;;;10.30;6.35;;;;;;;11.24;100.00;102533.28;4940750;29;20589;-95
2024/01/30 10:18:55;;;;;;;14.07;6.50;;;;;;;11.22;100.00;102535.88;4940769;29;20102;-96
2024/01/30 10:21:21;;;;;;;14.10;6.18;;;;;;;11.21;100.00;102538.47;4940872;29;20035;-96
2024/01/30 10:23:46;;;;;;;17.95;6.20;;;;;;;11.21;100.00;102544.66;4957884;29;20491;-95
2024/01/30 10:26:12;;;;;;;13.88;6.57;;;;;;;11.21;100.00;102547.28;4958055;29;20042;-92
2024/01/30 10:28:38;;;;;;;13.02;6.50;;;;;;;11.22;100.00;102550.84;4940509;29;20383;-94
2024/01/30 10:31:03;;;;;;;12.98;6.95;;;;;;;11.26;100.00;102566.91;4940874;29;20039;-93
2024/01/30 10:33:32;;;;;;;11.95;6.22;;;;;;;11.29;100.00;102563.44;4958024;29;20106;-90
2024/01/30 10:36:04;;;;;;;11.65;7.15;;;;;;;11.31;100.00;102555.59;4957709;29;20073;-94
2024/01/30 10:38:30;;;;;;;18.40;6.55;;;;;;;11.37;100.00;102556.69;4964688;28;20058;-93
2024/01/30 10:41:02;;;;;;;15.00;7.40;;;;;;;11.44;100.00;102555.16;4952317;28;20035;-96
2024/01/30 10:43:35;;;;;;;11.00;6.95;;;;;;;11.45;100.00;102551.66;4948760;28;20039;-89
2024/01/30 10:46:10;;;;;;;17.23;6.82;;;;;;;11.49;100.00;102564.16;4968008;28;20019;-93
2024/01/30 10:48:42;;;;;;;16.52;7.00;;;;;;;11.40;100.00;102550.59;4969372;28;20042;-96
2024/01/30 10:51:09;;;;;;;12.05;6.90;;;;;;;11.46;100.00;102548.16;4950023;28;20415;-90
2024/01/30 10:53:35;;;;;;;11.13;6.95;;;;;;;11.53;100.00;102545.78;4935824;28;20031;-89
2024/01/30 10:56:03;;;;;;;11.18;7.00;;;;;;;11.59;100.00;102560.97;4955148;28;20099;-92
2024/01/30 10:58:29;;;;;;;14.98;7.18;;;;;;;11.57;100.00;102559.13;4958815;28;20051;-94
2024/01/30 11:00:54;;;;;;;11.85;6.63;;;;;;;11.65;100.00;102565.56;4977262;28;20071;-93
2024/01/30 11:03:21;;;;;;;12.23;6.72;;;;;;;11.70;100.00;102579.88;4978010;28;20042;-87
2024/01/30 11:05:50;;;;;;;13.45;6.68;;;;;;;11.68;100.00;102563.03;4976547;28;20030;-91
2024/01/30 11:08:23;;;;;;;13.43;7.53;;;;;;;11.69;100.00;102557.81;4975611;28;20038;-92
2024/01/30 11:10:50;;;;;;;15.82;7.45;;;;;;;11.65;100.00;102557.63;4981099;28;20038;-91
2024/01/30 11:13:15;;;;;;;15.07;7.47;;;;;;;11.71;100.00;102569.31;4989699;28;20038;-91
2024/01/30 11:15:41;;;;;;;13.90;7.35;;;;;;;11.69;100.00;102563.09;4987736;28;20035;-92
2024/01/30 11:18:06;;;;;;;11.35;7.50;;;;;;;11.66;100.00;102573.56;4978499;28;20046;-92
2024/01/30 11:20:33;;;;;;;14.90;6.97;;;;;;;11.65;100.00;102557.63;4943882;28;20034;-90
2024/01/30 11:22:59;;;;;;;16.77;7.72;;;;;;;11.63;100.00;102570.81;4976360;28;20480;-91
2024/01/30 11:25:25;;;;;;;12.38;7.43;;;;;;;11.62;100.00;102568.13;4958954;28;20384;-91
2024/01/30 11:27:55;;;;;;;19.38;7.28;;;;;;;11.60;100.00;102573.34;4976055;28;20023;-91
2024/01/30 11:30:28;;;;;;;15.07;6.65;;;;;;;11.64;100.00;102566.41;4976321;28;20319;-90
2024/01/30 11:33:08;;;;;;;13.43;7.50;;;;;;;11.59;100.00;102575.94;4958724;28;20038;-92
2024/01/30 11:35:44;;;;;;;14.10;7.50;;;;;;;11.60;100.00;102570.69;4958102;28;20053;-92
2024/01/30 11:38:13;;;;;;;14.80;7.38;;;;;;;11.66;100.00;102567.38;4942783;28;20077;-91
2024/01/30 11:40:40;;;;;;;14.88;7.47;;;;;;;11.71;100.00;102560.50;4975928;28;20035;-90
2024/01/30 11:43:06;;;;;;;14.38;6.93;;;;;;;11.73;100.00;102570.28;4975987;28;20066;-92
2024/01/30 11:45:32;;;;;;;12.80;6.82;;;;;;;11.82;100.00;102563.47;4958457;28;20121;-91
2024/01/30 11:48:04;;;;;;;11.75;6.32;;;;;;;11.84;100.00;102564.47;4975842;28;20039;-91
2024/01/30 11:50:30;;;;;;;9.48;6.03;;;;;;;11.85;100.00;102558.31;4958343;28;20038;-90
2024/01/30 11:52:56;;;;;;;11.05;6.20;;;;;;;11.93;98.87;102565.69;4975244;28;20031;-89
2024/01/30 11:55:23;;;;;;;8.70;5.47;;;;;;;11.90;96.84;102562.00;4975522;28;20392;-90
2024/01/30 11:57:48;;;;;;;12.55;5.28;;;;;;;11.97;95.60;102579.94;4942121;28;20045;-90
2024/01/30 12:00:18;;;;;;;10.35;4.97;;;;;;;11.93;94.62;102563.03;4975541;28;20035;-90
2024/01/30 12:02:51;;;;;;;8.38;4.70;;;;;;;11.88;94.11;102553.13;4971914;28;20023;-91
2024/01/30 12:05:16;;;;;;;10.43;4.80;;;;;;;11.93;93.31;102567.44;4956223;29;20043;-91
2024/01/30 12:07:46;;;;;;;9.48;5.18;;;;;;;11.93;94.50;102570.97;4938934;29;20361;-91
2024/01/30 12:10:13;;;;;;;11.18;5.68;;;;;;;11.79;93.25;102545.75;4956130;29;20113;-91
2024/01/30 12:12:40;;;;;;;10.52;4.75;;;;;;;11.95;93.24;102571.03;4938792;29;20035;-91
2024/01/30 12:15:07;;;;;;;13.25;5.55;;;;;;;11.91;93.44;102569.13;4938552;29;20381;-91
2024/01/30 12:17:37;;;;;;;9.80;4.90;;;;;;;11.89;92.97;102570.81;4922790;29;20122;-91
2024/01/30 12:20:07;;;;;;;9.73;5.07;;;;;;;11.87;93.07;102573.44;4938905;29;20035;-91
2024/01/30 12:22:40;;;;;;;10.27;4.28;;;;;;;11.89;92.64;102582.31;4955967;29;20035;-90
2024/01/30 12:25:08;;;;;;;6.75;3.95;;;;;;;11.92;90.88;102582.44;4955481;29;20035;-90
2024/01/30 12:27:34;;;;;;;8.23;4.07;;;;;;;11.86;89.12;102587.53;4955684;29;20064;-90
2024/01/30 12:29:59;;;;;;;10.50;3.80;;;;;;;11.81;89.39;102581.13;4955282;29;20517;-92
2024/01/30 12:32:25;;;;;;;8.98;3.78;;;;;;;11.78;88.86;102592.53;4955791;29;20405;-92
2024/01/30 12:34:50;;;;;;;6.22;3.72;;;;;;;11.81;88.43;102601.41;4955470;29;20037;-90
2024/01/30 12:37:22;;;;;;;6.80;3.10;;;;;;;11.80;86.61;102605.81;4955315;29;20043;-90
2024/01/30 12:39:48;;;;;;;6.88;3.00;;;;;;;11.85;86.01;102606.91;4938348;29;20031;-90
2024/01/30 12:42:13;;;;;;;6.05;2.88;;;;;;;12.12;84.19;102600.72;4956214;29;20046;-92
2024/01/30 12:44:39;;;;;;;6.80;2.58;;;;;;;12.42;82.76;102599.06;4945820;29;20074;-90
2024/01/30 12:47:05;;;;;;;5.60;2.55;;;;;;;12.70;81.50;102603.44;4964934;29;20046;-90
2024/01/30 12:49:30;;;;;;;3.90;2.15;;;;;;;13.01;78.23;102613.19;4947330;29;20041;-91
2024/01/30 12:51:56;;;;;;;5.40;2.30;;;;;;;13.27;76.51;102614.00;4924050;29;20476;-90
2024/01/30 12:54:23;;;;;;;4.32;2.05;;;;;;;13.38;74.17;102595.69;4955772;29;20039;-92
2024/01/30 12:56:48;;;;;;;7.65;2.08;;;;;;;13.25;74.73;102598.88;4955823;29;20058;-91
2024/01/30 12:59:13;;;;;;;3.70;2.10;;;;;;;13.11;74.82;102618.81;4938008;29;20074;-92
2024/01/30 13:01:39;;;;;;;4.32;2.05;;;;;;;12.94;75.69;102629.81;4955560;29;20042;-90
2024/01/30 13:04:04;;;;;;;8.30;3.53;;;;;;;12.73;76.71;102615.91;4955256;29;20373;-91
2024/01/30 13:06:29;;;;;;;10.10;4.60;;;;;;;12.64;77.52;102623.59;4938072;29;20075;-91
2024/01/30 13:08:55;;;;;;;7.03;2.72;;;;;;;12.56;77.75;102633.06;4955456;29;20070;-90
2024/01/30 13:11:20;;;;;;;4.05;1.90;;;;;;;12.43;75.41;102615.88;4955252;29;20042;-90